Sparta, WI

9:22 PM CDT on July 01, 2015 (GMT -0500)
Sparta-Fort McCoy | | Change Station
CLOSE
Current Station
Airport
Location: Sparta,
Elevation: 837 ft
Nearby Weather Stations

Elev 837 ft 43.96 °N, 90.74 °W | Updated 7 minutes ago

Clear
Clear
56 °F
Feels Like 56 °F
N
0
Wind Variable Wind from North

Today
High -- | Low -- °F
--% Chance of Precip.
Yesterday
High -- | Low -- °F
Precip. -- in
5:24 AM 8:49 PM
Full, 100% visible
Pressure 30.02 in
Visibility 10.0 miles
Clouds Clear
Dew Point 50 °F
Humidity 79%
Rainfall 0.00 in
Snow Depth Not available.
UV 0 out of 12
Pollen 4.20 out of 12
Air Quality Not available.
Flu Activity Not available.
METAR KCMY 020215Z AUTO 00000KT 10SM CLR 13/10 A3002 RMK AO2 T01340099

More Conditions Fewer Conditions

Pressure 30.02 in
Visibility 10.0 miles
Clouds Clear
Dew Point 50 °F
Humidity 79%
Rainfall 0.00 in
Snow Depth Not available.
UV 0 out of 12
Pollen 4.20 out of 12
Air Quality Not available.
Flu Activity Not available.
METAR KCMY 020215Z AUTO 00000KT 10SM CLR 13/10 A3002 RMK AO2 T01340099

More Conditions Fewer Conditions

10-Day Weather Forecast

×

Almanac

Astronomy

Jul. 01, 2015 Rise Set
Actual Time
Civil Twilight
Nautical Twilight
Astronomical Twilight
Moon
Length of Visible Light
Length of Day
Tomorrow will be .
, % of the Moon is Illuminated

Today's Extremes

State Highs State Lows

Community

WunderPhotos

Upload Photos

1,834,376 photos uploaded!

WunderBlogs® & News

Nearby

Air Quality

  Air Quality AQ Index Pollutant
Not available.

Snow Depth

Station Depth Elevation

Earthquake Activity

City Distance Mag. Time & Date
Minimum magnitude displayed is 2.5.

Coastal Water Temperatures

Place Temperature

Stations

Nearby Weather Stations

Station Location Temp. Windchill Dew Point Humidity Wind Precip. Elev Updated Type